Terminal Aerodrome Forecast
Issued by NWS

Home | Current Version | Previous Version | Text Only | Print | Product List | Glossary On
Versions: 1 2 3 4 5 6 7 8 9 10 11 12 13 14 15 16 17 18 19 20 21
000
FTUS46 KPDT 212300
TAFYKM
TAF
KYKM 212320Z 2200/2224 20012G20KT P6SM SCT070
     FM220300 22006KT P6SM BKN070 OVC100
     FM221200 VRB05KT P6SM -SHRA BKN050 OVC080
     FM221800 16005KT P6SM -RA BKN030 OVC060=

USA.gov is the U.S. government's official web portal to all federal, state and local government web resources and services.